Time;durP1;ratioP1;P1;durP2;ratioP2;P2;SDS_P1;SDS_P2;PMS_P1;PMS_P2;Temp;Humidity;BMP_temperature;BMP_pressure;BME280_temperature;BME280_humidity;BME280_pressure;Samples;Min_cycle;Max_cycle;Signal;HPM_P1;HPM_P2
2023/07/24 00:01:50;;;;;;;7.07;5.30;;;;;;;21.22;61.13;156820.53;4911067;29;20928;-79
2023/07/24 00:04:35;;;;;;;7.47;6.03;;;;;;;21.15;61.59;156802.25;4909556;29;20452;-80
2023/07/24 00:07:23;;;;;;;7.50;6.37;;;;;;;21.04;62.26;156774.81;4920811;29;20524;-80
2023/07/24 00:10:08;;;;;;;7.70;6.07;;;;;;;21.01;62.89;156765.66;4907799;29;20477;-79
2023/07/24 00:12:53;;;;;;;6.83;5.63;;;;;;;21.04;62.50;156773.50;4911841;29;21282;-79
2023/07/24 00:15:39;;;;;;;8.47;5.90;;;;;;;20.99;61.87;156760.44;4909851;29;20480;-79
2023/07/24 00:18:24;;;;;;;6.87;5.50;;;;;;;20.93;62.19;156744.78;4908838;29;20461;-79
2023/07/24 00:21:10;;;;;;;7.10;6.30;;;;;;;20.78;63.77;156705.66;4910063;29;20436;-78
2023/07/24 00:23:57;;;;;;;6.77;5.77;;;;;;;20.65;66.29;156674.31;4913368;29;20453;-78
2023/07/24 00:26:42;;;;;;;6.87;5.20;;;;;;;20.56;67.70;156650.84;4910210;29;20977;-78
2023/07/24 00:29:27;;;;;;;7.83;6.43;;;;;;;20.58;69.72;156656.06;4909406;29;20967;-79
2023/07/24 00:32:12;;;;;;;7.97;6.30;;;;;;;20.50;68.58;156633.88;4903445;29;20553;-78
2023/07/24 00:34:58;;;;;;;8.13;6.60;;;;;;;20.47;69.19;156627.34;4909384;29;21325;-79
2023/07/24 00:37:43;;;;;;;7.10;5.20;;;;;;;20.35;69.38;156596.06;4902956;29;20943;-79
2023/07/24 00:40:29;;;;;;;7.93;6.10;;;;;;;20.27;69.77;156573.88;4911623;29;20428;-79
2023/07/24 00:43:15;;;;;;;6.20;5.50;;;;;;;20.20;70.02;156556.84;4907288;29;20964;-79
2023/07/24 00:46:00;;;;;;;7.63;6.40;;;;;;;20.25;71.41;156570.00;4908823;29;20876;-79
2023/07/24 00:48:45;;;;;;;7.97;6.10;;;;;;;20.34;71.25;156593.44;4910826;29;20520;-79
2023/07/24 00:51:31;;;;;;;6.17;5.57;;;;;;;20.36;71.36;156598.66;4917182;29;20631;-78
2023/07/24 00:54:17;;;;;;;8.37;6.77;;;;;;;20.35;71.47;156594.75;4908694;29;20491;-79
2023/07/24 00:57:06;;;;;;;8.23;6.07;;;;;;;20.28;71.34;156577.78;4910738;29;20432;-79
2023/07/24 00:59:51;;;;;;;8.27;5.77;;;;;;;20.28;71.65;156576.50;4911160;29;20453;-80
2023/07/24 01:02:37;;;;;;;8.50;5.63;;;;;;;20.27;72.46;156575.19;4913476;29;20507;-78
2023/07/24 01:05:23;;;;;;;6.73;5.03;;;;;;;20.23;73.05;156563.38;4911964;29;20468;-78
2023/07/24 01:08:09;;;;;;;6.97;5.80;;;;;;;20.18;72.73;156550.34;4921717;29;20436;-79
2023/07/24 01:10:58;;;;;;;6.23;5.63;;;;;;;20.16;72.05;156545.13;4909738;29;20851;-79
2023/07/24 01:13:49;;;;;;;6.87;5.70;;;;;;;20.09;71.71;156528.22;4926735;29;20483;-79
2023/07/24 01:16:38;;;;;;;6.63;5.67;;;;;;;20.04;71.50;156516.44;4927057;29;20520;-79
2023/07/24 01:19:38;;;;;;;6.30;5.27;;;;;;;20.05;70.96;156519.06;4921983;29;20464;-79
2023/07/24 01:22:26;;;;;;;8.17;5.87;;;;;;;20.05;70.88;156517.75;4913759;29;20457;-79
2023/07/24 01:25:20;;;;;;;7.67;5.97;;;;;;;20.03;71.16;156512.53;4914674;29;20470;-79
2023/07/24 01:28:09;;;;;;;6.97;5.80;;;;;;;19.98;70.80;156499.50;4907784;29;20520;-79
2023/07/24 01:30:54;;;;;;;8.63;6.73;;;;;;;19.96;70.59;156495.56;4913200;29;20460;-79
2023/07/24 01:33:39;;;;;;;7.30;6.60;;;;;;;19.94;70.06;156489.06;4914485;29;20820;-79
2023/07/24 01:36:25;;;;;;;10.27;6.37;;;;;;;19.92;69.88;156485.16;4922126;29;20577;-79
2023/07/24 01:39:10;;;;;;;9.13;6.40;;;;;;;19.88;69.60;156474.69;4909793;29;20467;-79
2023/07/24 01:41:55;;;;;;;13.43;6.43;;;;;;;19.86;69.82;156469.50;4913001;29;20432;-79
2023/07/24 01:44:42;;;;;;;9.00;6.43;;;;;;;19.85;69.98;156466.94;4913709;29;20647;-79
2023/07/24 01:47:27;;;;;;;7.07;5.80;;;;;;;19.85;69.83;156466.94;4905688;29;20528;-78
2023/07/24 01:50:13;;;;;;;14.23;6.57;;;;;;;19.82;69.81;156459.09;4914066;29;20437;-78
2023/07/24 01:52:58;;;;;;;7.30;5.43;;;;;;;19.80;69.54;156453.84;4925979;29;20817;-79
2023/07/24 01:55:44;;;;;;;7.23;5.53;;;;;;;19.79;69.78;156451.28;4924354;29;20436;-80
2023/07/24 01:58:29;;;;;;;7.43;5.10;;;;;;;19.75;70.22;156439.56;4913828;29;20452;-79
2023/07/24 02:01:15;;;;;;;6.93;6.13;;;;;;;19.72;70.09;156431.72;4911744;29;20449;-79
2023/07/24 02:04:01;;;;;;;6.47;4.87;;;;;;;19.67;69.95;156419.94;4912793;29;20581;-79
2023/07/24 02:06:46;;;;;;;7.77;6.60;;;;;;;19.64;70.22;156412.16;4909271;29;20449;-79
2023/07/24 02:09:32;;;;;;;6.90;5.73;;;;;;;19.62;69.99;156406.91;4909498;29;20457;-79
2023/07/24 02:12:17;;;;;;;6.83;5.63;;;;;;;19.60;69.83;156400.41;4913554;29;20472;-80
2023/07/24 02:15:02;;;;;;;6.03;5.23;;;;;;;19.58;69.68;156396.50;4912069;29;20613;-79
2023/07/24 02:17:49;;;;;;;7.63;6.20;;;;;;;19.59;69.45;156399.09;4912343;29;20453;-79
2023/07/24 02:20:36;;;;;;;8.57;6.43;;;;;;;19.61;68.85;156403.03;4922255;29;20567;-78
2023/07/24 02:23:21;;;;;;;8.30;5.87;;;;;;;19.61;68.87;156404.34;4910976;29;20464;-80
2023/07/24 02:26:07;;;;;;;8.40;5.80;;;;;;;19.64;68.40;156410.84;4910612;29;20456;-79
2023/07/24 02:28:54;;;;;;;7.40;5.47;;;;;;;19.66;68.00;156417.38;4909842;29;20463;-80
2023/07/24 02:31:40;;;;;;;8.27;6.20;;;;;;;19.64;68.38;156410.84;4923934;29;20749;-79
2023/07/24 02:34:28;;;;;;;7.70;5.97;;;;;;;19.61;68.11;156404.34;4910847;29;20504;-79
2023/07/24 02:37:13;;;;;;;6.60;5.67;;;;;;;19.60;68.51;156400.41;4911206;29;20637;-79
2023/07/24 02:39:58;;;;;;;7.57;5.83;;;;;;;19.57;68.71;156392.56;4912866;29;20479;-79
2023/07/24 02:42:44;;;;;;;8.20;6.43;;;;;;;19.56;68.48;156390.00;4919192;29;20895;-78
2023/07/24 02:45:31;;;;;;;7.03;6.17;;;;;;;19.53;68.35;156383.47;4910672;29;20855;-79
2023/07/24 02:48:16;;;;;;;10.13;6.40;;;;;;;19.54;68.49;156386.06;4909820;29;20484;-79
2023/07/24 02:51:03;;;;;;;7.23;5.93;;;;;;;19.55;68.03;156388.69;4909101;29;20496;-79
2023/07/24 02:53:48;;;;;;;7.13;5.80;;;;;;;19.56;67.91;156390.00;4924681;29;20476;-79
2023/07/24 02:56:33;;;;;;;6.70;5.47;;;;;;;19.56;67.42;156390.00;4909525;29;20460;-79
2023/07/24 02:59:18;;;;;;;6.83;5.57;;;;;;;19.57;67.72;156392.56;4910556;29;20449;-79
2023/07/24 03:02:04;;;;;;;7.50;5.93;;;;;;;19.57;67.22;156392.56;4913127;29;20523;-79
2023/07/24 03:04:50;;;;;;;7.83;6.10;;;;;;;19.60;67.08;156400.41;4923377;29;20471;-79
2023/07/24 03:07:36;;;;;;;7.47;5.33;;;;;;;19.60;66.87;156400.41;4908601;29;20444;-79
2023/07/24 03:10:21;;;;;;;7.80;5.90;;;;;;;19.60;67.02;156400.41;4908600;29;20460;-79
2023/07/24 03:13:07;;;;;;;6.73;5.50;;;;;;;19.54;67.03;156386.06;4907216;29;20481;-79
2023/07/24 03:15:53;;;;;;;6.87;5.50;;;;;;;19.53;66.82;156382.16;4910131;29;20500;-79
2023/07/24 03:18:38;;;;;;;9.43;6.33;;;;;;;19.54;66.70;156386.06;4906330;29;20807;-79
2023/07/24 03:21:24;;;;;;;9.00;5.90;;;;;;;19.55;66.62;156388.69;4906569;29;20464;-79
2023/07/24 03:24:10;;;;;;;7.13;5.50;;;;;;;19.56;66.82;156390.00;4909211;29;20428;-79
2023/07/24 03:26:55;;;;;;;6.90;5.53;;;;;;;19.51;66.77;156376.97;4909841;29;20805;-79
2023/07/24 03:29:41;;;;;;;7.70;5.97;;;;;;;19.50;66.95;156374.34;4911669;29;20552;-79
2023/07/24 03:32:27;;;;;;;7.43;5.83;;;;;;;19.45;66.96;156362.63;4911596;29;20428;-79
2023/07/24 03:35:12;;;;;;;7.33;6.03;;;;;;;19.40;66.96;156350.91;4911679;29;21447;-79
2023/07/24 03:37:57;;;;;;;8.00;6.20;;;;;;;19.40;67.21;156349.59;4906371;29;20516;-78
2023/07/24 03:40:47;;;;;;;6.53;5.77;;;;;;;19.39;67.29;156346.97;4909656;29;20950;-79
2023/07/24 03:43:32;;;;;;;9.13;6.60;;;;;;;19.37;67.40;156341.72;4911178;29;20936;-79
2023/07/24 03:46:18;;;;;;;7.13;6.00;;;;;;;19.33;67.66;156332.56;4915317;29;20833;-79
2023/07/24 03:49:03;;;;;;;8.17;6.57;;;;;;;19.31;67.87;156326.06;4910526;29;20436;-79
2023/07/24 03:51:49;;;;;;;7.63;6.10;;;;;;;19.28;67.93;156319.53;4904943;29;20452;-80
2023/07/24 03:54:34;;;;;;;7.10;5.67;;;;;;;19.28;67.87;156319.53;4918576;29;20504;-79
2023/07/24 03:57:20;;;;;;;7.97;6.63;;;;;;;19.28;67.84;156319.53;4906059;29;20512;-79
2023/07/24 04:00:07;;;;;;;7.27;5.50;;;;;;;19.28;68.25;156318.22;4909924;29;20464;-80
2023/07/24 04:02:58;;;;;;;8.90;6.90;;;;;;;19.30;68.34;156324.75;4907957;29;20592;-80
2023/07/24 04:05:44;;;;;;;9.70;7.47;;;;;;;19.31;68.45;156327.38;4906881;29;20864;-79
2023/07/24 04:08:29;;;;;;;8.27;5.97;;;;;;;19.34;68.60;156333.88;4912273;29;20875;-79
2023/07/24 04:11:14;;;;;;;8.20;6.03;;;;;;;19.37;68.42;156341.72;4910639;29;20460;-78
2023/07/24 04:14:01;;;;;;;8.13;5.97;;;;;;;19.37;68.37;156343.06;4910359;29;20441;-79
2023/07/24 04:16:47;;;;;;;7.40;6.00;;;;;;;19.36;68.81;156339.09;4909584;29;20509;-80
2023/07/24 04:19:32;;;;;;;6.67;5.33;;;;;;;19.34;68.83;156335.19;4909960;29;20468;-79
2023/07/24 04:22:17;;;;;;;7.50;6.03;;;;;;;19.34;69.31;156335.19;4912496;29;20943;-79
2023/07/24 04:25:02;;;;;;;8.93;6.20;;;;;;;19.35;69.01;156337.78;4912476;29;20444;-79
2023/07/24 04:27:47;;;;;;;8.57;6.10;;;;;;;19.39;69.22;156348.28;4908635;29;20444;-79
2023/07/24 04:30:34;;;;;;;8.10;6.40;;;;;;;19.41;69.16;156353.47;4908109;29;20516;-79
2023/07/24 04:33:20;;;;;;;8.10;5.80;;;;;;;19.42;69.26;156356.09;4905385;29;20980;-79
2023/07/24 04:36:05;;;;;;;6.77;5.60;;;;;;;19.42;69.15;156356.09;4916263;29;20492;-79
2023/07/24 04:38:50;;;;;;;8.60;6.60;;;;;;;19.47;69.35;156366.50;4915271;29;20444;-80
2023/07/24 04:41:36;;;;;;;7.40;6.17;;;;;;;19.49;68.96;156373.03;4914929;29;20432;-79
2023/07/24 04:44:21;;;;;;;6.37;5.40;;;;;;;19.59;68.54;156399.09;4916541;29;20882;-79
2023/07/24 04:47:08;;;;;;;7.73;5.17;;;;;;;19.64;68.88;156410.84;4910126;29;20627;-79
2023/07/24 04:49:55;;;;;;;6.93;5.53;;;;;;;19.63;68.64;156409.53;4914293;29;20816;-80
2023/07/24 04:52:40;;;;;;;8.90;6.57;;;;;;;19.63;68.13;156408.22;4914100;29;20500;-79
2023/07/24 04:55:25;;;;;;;8.70;5.57;;;;;;;19.66;68.38;156416.06;4918422;29;21003;-80
2023/07/24 04:58:11;;;;;;;10.10;6.57;;;;;;;19.67;68.34;156419.94;4914210;29;20442;-79
2023/07/24 05:00:56;;;;;;;8.90;5.80;;;;;;;19.69;68.21;156423.88;4908741;29;20466;-79
2023/07/24 05:03:42;;;;;;;8.80;6.30;;;;;;;19.70;67.96;156427.78;4914339;29;21133;-79
2023/07/24 05:06:28;;;;;;;7.63;6.17;;;;;;;19.74;67.84;156436.91;4912498;29;20508;-79
2023/07/24 05:09:14;;;;;;;7.60;5.83;;;;;;;19.77;67.57;156446.06;4911108;29;20448;-79
2023/07/24 05:11:59;;;;;;;7.60;5.90;;;;;;;19.81;67.96;156456.47;4913621;29;20490;-79
2023/07/24 05:14:44;;;;;;;7.63;5.90;;;;;;;19.86;67.86;156468.19;4913974;29;20472;-79
2023/07/24 05:17:30;;;;;;;6.60;5.50;;;;;;;19.88;67.75;156474.69;4911768;29;20449;-79
2023/07/24 05:20:16;;;;;;;7.00;5.40;;;;;;;19.90;67.78;156479.97;4910567;29;20633;-79
2023/07/24 05:23:02;;;;;;;9.60;6.73;;;;;;;19.91;67.79;156482.53;4913664;29;20456;-79
2023/07/24 05:25:47;;;;;;;8.73;5.73;;;;;;;19.90;67.78;156479.97;4909848;29;20500;-79
2023/07/24 05:28:33;;;;;;;8.27;6.67;;;;;;;19.94;67.85;156490.38;4910738;29;20453;-79
2023/07/24 05:31:18;;;;;;;7.80;6.27;;;;;;;19.97;67.87;156496.88;4912832;29;20464;-80
2023/07/24 05:34:05;;;;;;;8.13;6.00;;;;;;;19.98;67.84;156499.50;4911197;29;20954;-79
2023/07/24 05:36:51;;;;;;;8.17;6.30;;;;;;;19.99;68.02;156502.09;4909126;29;21038;-79
2023/07/24 05:39:37;;;;;;;8.37;6.67;;;;;;;19.98;68.19;156500.81;4911726;29;20496;-79
2023/07/24 05:42:22;;;;;;;8.13;5.80;;;;;;;19.95;69.25;156491.69;4908714;29;20601;-79
2023/07/24 05:45:08;;;;;;;10.77;6.50;;;;;;;19.93;69.65;156486.47;4908566;29;20463;-80
2023/07/24 05:47:54;;;;;;;7.93;6.50;;;;;;;19.91;70.44;156481.22;4910276;29;20488;-80
2023/07/24 05:50:40;;;;;;;9.20;7.30;;;;;;;19.91;70.65;156482.53;4911598;29;20564;-80
2023/07/24 05:53:30;;;;;;;8.40;6.73;;;;;;;19.89;70.75;156477.34;4910059;29;20644;-80
2023/07/24 05:56:15;;;;;;;7.87;6.00;;;;;;;19.91;70.74;156482.53;4909095;29;20629;-80
2023/07/24 05:59:01;;;;;;;8.80;6.20;;;;;;;19.96;70.88;156494.31;4923529;29;20472;-79
2023/07/24 06:01:46;;;;;;;9.00;6.27;;;;;;;19.95;70.75;156493.00;4922832;29;20585;-80
2023/07/24 06:04:32;;;;;;;8.30;5.97;;;;;;;19.94;71.02;156489.06;4911074;29;20532;-80
2023/07/24 06:07:17;;;;;;;7.60;5.73;;;;;;;19.92;71.18;156485.16;4911385;29;20810;-80
2023/07/24 06:10:05;;;;;;;9.87;7.60;;;;;;;19.93;71.09;156487.78;4909967;29;20609;-80
2023/07/24 06:12:49;;;;;;;8.10;6.47;;;;;;;19.94;71.15;156490.38;4909533;29;20601;-80
2023/07/24 06:15:35;;;;;;;12.13;7.23;;;;;;;19.95;71.36;156491.69;4909721;29;20885;-80
2023/07/24 06:18:20;;;;;;;10.30;6.27;;;;;;;19.95;71.71;156493.00;4907168;29;20448;-80
2023/07/24 06:21:05;;;;;;;8.70;6.97;;;;;;;19.96;72.00;156494.31;4909192;29;20813;-76
2023/07/24 06:23:50;;;;;;;8.40;5.80;;;;;;;19.97;71.81;156498.19;4909912;29;21023;-76
2023/07/24 06:26:36;;;;;;;9.13;7.77;;;;;;;20.00;71.98;156504.72;4909627;29;20460;-76
2023/07/24 06:29:22;;;;;;;7.73;6.27;;;;;;;20.01;72.03;156507.34;4905100;29;20472;-75
2023/07/24 06:32:08;;;;;;;8.47;5.93;;;;;;;20.02;72.12;156511.22;4911522;29;20519;-75
2023/07/24 06:34:53;;;;;;;9.10;6.47;;;;;;;20.02;71.99;156511.22;4912100;29;20485;-76
2023/07/24 06:37:38;;;;;;;8.00;6.00;;;;;;;20.06;71.67;156520.38;4904907;29;20804;-75
2023/07/24 06:40:23;;;;;;;9.47;6.93;;;;;;;20.12;71.61;156534.72;4908443;29;20489;-76
2023/07/24 06:43:10;;;;;;;12.10;6.63;;;;;;;20.17;71.46;156549.06;4903089;29;20437;-75
2023/07/24 06:45:55;;;;;;;7.70;6.47;;;;;;;20.23;71.05;156563.38;4906986;29;20748;-75
2023/07/24 06:48:40;;;;;;;9.23;7.10;;;;;;;20.27;70.86;156575.19;4907532;29;20551;-76
2023/07/24 06:51:26;;;;;;;8.70;6.37;;;;;;;20.33;70.78;156589.56;4909716;29;20448;-75
2023/07/24 06:54:11;;;;;;;8.17;6.60;;;;;;;20.37;70.63;156599.97;4910072;29;20527;-77
2023/07/24 06:56:57;;;;;;;7.70;6.57;;;;;;;20.39;70.56;156605.16;4903098;29;20866;-76
2023/07/24 06:59:43;;;;;;;8.97;6.77;;;;;;;20.43;70.26;156616.94;4911036;29;20491;-76
2023/07/24 07:02:29;;;;;;;7.70;6.80;;;;;;;20.48;70.51;156628.66;4910271;29;20472;-76
2023/07/24 07:05:14;;;;;;;8.63;6.77;;;;;;;20.51;70.21;156637.81;4909508;29;20460;-76
2023/07/24 07:07:59;;;;;;;10.90;7.07;;;;;;;20.54;70.32;156644.34;4908668;29;21118;-75
2023/07/24 07:10:45;;;;;;;8.17;6.87;;;;;;;20.54;70.32;156645.59;4907001;29;20464;-76
2023/07/24 07:13:30;;;;;;;8.70;6.97;;;;;;;20.59;70.29;156658.69;4907672;29;20448;-76
2023/07/24 07:16:18;;;;;;;9.10;6.60;;;;;;;20.62;70.66;156665.22;4902021;29;20509;-76
2023/07/24 07:19:04;;;;;;;8.27;6.80;;;;;;;20.65;70.69;156674.31;4901332;29;20816;-74
2023/07/24 07:21:49;;;;;;;9.33;6.47;;;;;;;20.67;70.56;156676.94;4904580;29;20521;-76
2023/07/24 07:24:34;;;;;;;9.90;7.87;;;;;;;20.70;70.52;156684.78;4908656;29;20465;-75
2023/07/24 07:27:19;;;;;;;7.30;6.27;;;;;;;20.73;70.46;156692.63;4910233;29;20444;-76
2023/07/24 07:30:05;;;;;;;8.20;7.10;;;;;;;20.75;70.61;156697.81;4909453;29;20640;-76
2023/07/24 07:32:51;;;;;;;8.80;6.67;;;;;;;20.77;70.75;156703.03;4904623;29;20511;-76
2023/07/24 07:35:37;;;;;;;8.47;6.63;;;;;;;20.80;70.80;156710.84;4907080;29;20476;-76
2023/07/24 07:38:22;;;;;;;7.13;6.37;;;;;;;20.82;70.93;156716.06;4910392;29;20476;-76
2023/07/24 07:41:08;;;;;;;9.13;6.90;;;;;;;20.82;71.56;156717.38;4909468;29;20604;-76
2023/07/24 07:43:53;;;;;;;12.07;7.50;;;;;;;20.85;71.91;156723.91;4909560;29;20512;-76
2023/07/24 07:46:39;;;;;;;8.60;6.80;;;;;;;20.89;71.83;156734.38;4910059;29;20988;-76
2023/07/24 07:49:25;;;;;;;8.13;7.27;;;;;;;20.93;72.62;156744.78;4909456;29;20472;-76
2023/07/24 07:52:11;;;;;;;8.70;7.30;;;;;;;20.96;72.42;156752.63;4908267;29;20588;-76
2023/07/24 07:54:56;;;;;;;8.50;6.80;;;;;;;20.99;72.73;156761.75;4907424;29;20627;-76
2023/07/24 07:57:41;;;;;;;8.57;7.23;;;;;;;21.02;73.15;156768.28;4909951;29;20445;-76
2023/07/24 08:00:27;;;;;;;7.57;6.73;;;;;;;21.08;73.12;156785.28;4908409;29;20457;-76
2023/07/24 08:03:12;;;;;;;8.23;7.43;;;;;;;21.13;73.17;156798.31;4908894;29;20525;-75
2023/07/24 08:05:59;;;;;;;10.07;7.53;;;;;;;21.17;74.05;156807.47;4909402;29;20520;-76
2023/07/24 08:08:44;;;;;;;9.50;6.80;;;;;;;21.21;74.17;156817.91;4908883;29;20469;-81
2023/07/24 08:11:29;;;;;;;9.00;6.87;;;;;;;21.21;74.17;156819.22;4909982;29;20441;-80
2023/07/24 08:14:15;;;;;;;7.60;6.53;;;;;;;21.19;75.35;156814.00;4908509;29;20579;-80
2023/07/24 08:17:01;;;;;;;7.83;6.47;;;;;;;21.20;76.93;156815.31;4906216;29;20516;-80
2023/07/24 08:19:46;;;;;;;10.07;7.27;;;;;;;21.19;79.17;156812.69;4907762;29;20469;-80
2023/07/24 08:23:00;;;;;;;7.83;6.80;;;;;;;21.15;80.77;156803.53;4909367;29;20448;-80
2023/07/24 08:25:52;;;;;;;7.90;6.50;;;;;;;21.11;82.52;156793.13;4899041;29;20456;-79
2023/07/24 08:28:41;;;;;;;8.83;7.30;;;;;;;21.04;84.40;156773.50;4907570;29;20474;-79
2023/07/24 08:31:27;;;;;;;7.53;6.57;;;;;;;20.92;86.41;156742.16;4909650;29;20448;-79
2023/07/24 08:34:12;;;;;;;8.97;7.77;;;;;;;20.83;87.23;156720.00;4908083;29;20966;-79
2023/07/24 08:36:57;;;;;;;8.33;6.40;;;;;;;20.78;88.49;156706.97;4908546;29;20576;-79
2023/07/24 08:39:44;;;;;;;8.23;7.37;;;;;;;20.74;88.42;156695.19;4910500;29;20471;-79
2023/07/24 08:51:11;;;;;;;9.23;6.10;;;;;;;20.74;91.23;156695.19;4956731;23;20578;-77
2023/07/24 08:53:57;;;;;;;7.33;6.50;;;;;;;20.74;91.74;156696.50;4877452;29;20458;-77
2023/07/24 08:56:47;;;;;;;7.20;6.10;;;;;;;20.74;92.71;156696.50;4879220;29;20481;-77
2023/07/24 08:59:32;;;;;;;9.93;7.30;;;;;;;20.75;93.03;156697.81;4881495;29;20450;-77
2023/07/24 09:02:17;;;;;;;8.40;7.33;;;;;;;20.76;94.09;156701.72;4879062;29;20462;-78
2023/07/24 09:05:03;;;;;;;8.50;7.20;;;;;;;20.76;94.70;156700.44;4877300;29;21109;-77
2023/07/24 09:07:49;;;;;;;7.27;6.40;;;;;;;20.82;95.61;156716.06;4877900;29;20829;-77
2023/07/24 09:10:34;;;;;;;9.37;7.20;;;;;;;20.81;96.01;156714.75;4880481;29;20473;-77
2023/07/24 09:13:21;;;;;;;7.90;6.67;;;;;;;20.85;96.47;156723.91;4878365;29;20461;-77
2023/07/24 09:16:06;;;;;;;11.27;7.30;;;;;;;20.89;95.94;156734.38;4864634;29;20482;-77
2023/07/24 09:18:52;;;;;;;11.23;7.20;;;;;;;20.91;95.42;156739.56;4878435;29;20445;-77
2023/07/24 09:21:37;;;;;;;8.90;7.40;;;;;;;20.99;95.92;156760.44;4880933;29;20465;-77
2023/07/24 09:24:23;;;;;;;6.43;5.80;;;;;;;21.03;94.75;156770.88;4883495;29;20446;-78
2023/07/24 09:27:09;;;;;;;8.90;7.00;;;;;;;21.07;94.05;156781.38;4882988;29;20965;-78
2023/07/24 09:29:56;;;;;;;6.23;5.40;;;;;;;21.13;94.17;156798.31;4883384;29;20441;-78
2023/07/24 09:32:42;;;;;;;5.90;5.30;;;;;;;21.15;92.87;156803.53;4883033;29;20454;-78
2023/07/24 09:35:28;;;;;;;5.00;4.50;;;;;;;21.17;91.41;156807.47;4881663;29;20506;-79
2023/07/24 09:38:13;;;;;;;5.67;5.07;;;;;;;21.18;90.71;156810.09;4881726;29;20454;-79
2023/07/24 09:40:59;;;;;;;6.03;5.43;;;;;;;21.17;89.91;156808.78;4881499;29;20474;-79
2023/07/24 09:43:44;;;;;;;5.53;4.90;;;;;;;21.16;89.04;156804.84;4882186;29;20925;-79
2023/07/24 09:46:32;;;;;;;5.87;4.73;;;;;;;21.15;89.74;156802.25;4882569;29;21001;-79
2023/07/24 09:49:17;;;;;;;5.77;4.40;;;;;;;21.15;89.98;156803.53;4881552;29;21134;-78
2023/07/24 09:52:05;;;;;;;6.50;5.03;;;;;;;21.14;89.92;156799.63;4881156;29;21071;-79
2023/07/24 09:54:59;;;;;;;5.53;4.60;;;;;;;21.15;90.56;156803.53;4881026;29;20777;-79
2023/07/24 09:57:45;;;;;;;8.17;5.70;;;;;;;21.14;90.84;156800.94;4881813;29;21004;-78
2023/07/24 10:00:32;;;;;;;5.30;4.80;;;;;;;21.15;91.09;156802.25;4879852;29;21712;-78
2023/07/24 10:03:20;;;;;;;6.53;5.20;;;;;;;21.17;91.13;156807.47;4882211;29;20503;-78
2023/07/24 10:06:06;;;;;;;7.97;5.30;;;;;;;21.18;91.40;156811.38;4882044;29;20456;-78
2023/07/24 10:08:52;;;;;;;5.87;5.27;;;;;;;21.18;92.16;156810.09;4881574;29;20461;-79
2023/07/24 10:11:37;;;;;;;5.43;4.60;;;;;;;21.13;92.21;156797.00;4881034;29;20469;-79
2023/07/24 10:14:22;;;;;;;5.93;5.33;;;;;;;21.10;92.74;156789.22;4881758;29;20442;-79
2023/07/24 10:17:08;;;;;;;6.10;5.10;;;;;;;21.10;92.77;156790.50;4879262;29;20481;-79
2023/07/24 10:20:03;;;;;;;6.40;5.70;;;;;;;21.07;93.20;156781.38;4881207;29;20454;-79
2023/07/24 10:22:52;;;;;;;8.50;5.43;;;;;;;21.06;93.47;156778.69;4880076;29;20537;-79
2023/07/24 10:25:40;;;;;;;6.10;5.10;;;;;;;21.05;93.85;156776.06;4866194;29;20461;-79
2023/07/24 10:28:32;;;;;;;5.83;5.23;;;;;;;21.02;94.25;156768.28;4880734;29;20455;-79
2023/07/24 10:31:21;;;;;;;7.67;5.73;;;;;;;21.02;94.69;156768.28;4881668;29;20951;-79
2023/07/24 10:34:07;;;;;;;6.53;5.77;;;;;;;20.99;95.44;156761.75;4876284;29;20475;-78
2023/07/24 10:37:03;;;;;;;8.97;5.50;;;;;;;20.96;95.95;156752.63;4879194;29;20490;-78
2023/07/24 10:39:48;;;;;;;6.03;5.20;;;;;;;20.92;96.66;156742.16;4882815;29;20474;-77
2023/07/24 10:42:33;;;;;;;8.40;6.20;;;;;;;20.87;98.03;156729.09;4879547;29;20891;-80
2023/07/24 10:45:19;;;;;;;7.57;5.67;;;;;;;20.83;98.93;156718.69;4881112;29;20466;-78
2023/07/24 10:48:05;;;;;;;8.40;6.50;;;;;;;20.79;100.00;156709.53;4882321;29;20494;-78
2023/07/24 10:50:51;;;;;;;8.70;6.13;;;;;;;20.72;100.00;156689.97;4881166;29;20558;-78
2023/07/24 10:53:42;;;;;;;8.77;6.07;;;;;;;20.67;100.00;156676.94;4877943;29;20502;-78
2023/07/24 10:56:27;;;;;;;7.37;5.90;;;;;;;20.57;100.00;156653.44;4880129;29;20924;-78
2023/07/24 10:59:14;;;;;;;7.10;6.07;;;;;;;20.52;100.00;156639.06;4882458;29;20463;-78
2023/07/24 11:01:59;;;;;;;9.17;6.03;;;;;;;20.44;100.00;156619.53;4878845;29;20471;-78
2023/07/24 11:04:45;;;;;;;7.60;6.40;;;;;;;20.35;100.00;156596.06;4881356;29;20502;-77
2023/07/24 11:07:33;;;;;;;13.40;7.23;;;;;;;20.35;100.00;156596.06;4880841;29;20445;-77
2023/07/24 11:10:21;;;;;;;8.10;6.10;;;;;;;20.33;100.00;156590.81;4876542;29;20816;-77
2023/07/24 11:13:11;;;;;;;7.57;6.37;;;;;;;20.30;100.00;156583.03;4880712;29;20460;-77
2023/07/24 11:15:56;;;;;;;7.83;6.20;;;;;;;20.23;100.00;156563.38;4881745;29;20470;-77
2023/07/24 11:18:46;;;;;;;8.37;6.83;;;;;;;20.20;100.00;156556.84;4880571;29;20542;-77
2023/07/24 11:21:31;;;;;;;8.07;6.00;;;;;;;20.19;100.00;156554.28;4879893;29;20597;-78
2023/07/24 11:24:18;;;;;;;7.87;5.73;;;;;;;20.12;100.00;156536.00;4881461;29;20993;-77
2023/07/24 11:27:11;;;;;;;8.00;6.20;;;;;;;20.11;100.00;156532.09;4879445;29;20561;-78
2023/07/24 11:29:56;;;;;;;7.07;6.17;;;;;;;20.03;100.00;156512.53;4876133;29;21020;-78
2023/07/24 11:32:43;;;;;;;9.23;6.87;;;;;;;20.00;100.00;156504.72;4877465;29;20510;-78
2023/07/24 11:35:28;;;;;;;7.50;6.00;;;;;;;20.00;100.00;156504.72;4882048;29;20973;-78
2023/07/24 11:38:14;;;;;;;8.20;6.30;;;;;;;19.82;100.00;156457.78;4878052;29;20466;-78
2023/07/24 11:41:00;;;;;;;7.00;6.30;;;;;;;19.82;100.00;156457.78;4879600;29;20465;-77
2023/07/24 11:43:51;;;;;;;8.40;5.80;;;;;;;19.85;100.00;156465.63;4880438;29;20489;-77
2023/07/24 11:46:36;;;;;;;7.30;5.90;;;;;;;20.05;100.00;156517.75;4879126;29;20527;-77
2023/07/24 11:49:21;;;;;;;7.20;6.50;;;;;;;20.29;100.00;156580.41;4875775;29;20466;-77
2023/07/24 11:52:08;;;;;;;7.30;6.50;;;;;;;20.50;100.00;156635.19;4875332;29;20631;-77
2023/07/24 11:55:00;;;;;;;7.13;6.43;;;;;;;20.59;100.00;156658.69;4881091;29;20533;-77
2023/07/24 11:57:56;;;;;;;8.60;6.77;;;;;;;20.60;100.00;156659.94;4887793;29;20470;-77
2023/07/24 12:00:42;;;;;;;8.57;5.90;;;;;;;20.55;100.00;156646.91;4879937;29;20470;-77
2023/07/24 12:03:29;;;;;;;7.23;5.77;;;;;;;20.60;100.00;156661.28;4880155;29;20466;-77
2023/07/24 12:06:15;;;;;;;9.67;6.50;;;;;;;20.58;100.00;156654.75;4878632;29;20449;-78
2023/07/24 12:09:04;;;;;;;7.10;5.80;;;;;;;20.50;100.00;156633.88;4879326;29;20469;-78
2023/07/24 12:11:49;;;;;;;6.87;6.23;;;;;;;20.49;100.00;156632.56;4885068;29;20454;-78
2023/07/24 12:14:35;;;;;;;6.63;5.50;;;;;;;20.49;100.00;156632.56;4875657;29;21188;-78
2023/07/24 12:17:22;;;;;;;7.17;6.37;;;;;;;20.53;100.00;156643.03;4878753;29;20470;-79
2023/07/24 12:20:09;;;;;;;7.47;6.40;;;;;;;20.61;100.00;156663.91;4874981;29;20455;-79
2023/07/24 12:22:55;;;;;;;9.50;6.97;;;;;;;20.59;100.00;156657.38;4878299;29;22455;-79
2023/07/24 12:25:40;;;;;;;7.27;6.50;;;;;;;20.63;100.00;156667.78;4877647;29;21016;-79
2023/07/24 12:28:25;;;;;;;7.27;6.30;;;;;;;20.76;100.00;156700.44;4876888;29;20470;-79
2023/07/24 12:31:10;;;;;;;7.70;5.57;;;;;;;20.80;100.00;156710.84;4879455;29;20502;-79
2023/07/24 12:33:57;;;;;;;8.13;6.27;;;;;;;20.91;100.00;156739.56;4878714;29;20666;-79
2023/07/24 12:36:43;;;;;;;6.90;6.10;;;;;;;21.02;100.00;156768.28;4880275;29;20474;-79
2023/07/24 12:39:34;;;;;;;6.47;5.87;;;;;;;21.07;100.00;156782.69;4875693;29;20940;-79
2023/07/24 12:42:19;;;;;;;6.83;6.13;;;;;;;21.08;100.00;156783.97;4877507;29;20492;-79
2023/07/24 12:45:06;;;;;;;6.80;5.70;;;;;;;21.09;100.00;156787.91;4876882;29;20486;-79
2023/07/24 12:47:51;;;;;;;6.23;5.63;;;;;;;21.11;100.00;156791.81;4877375;29;20458;-79
2023/07/24 12:50:38;;;;;;;5.82;5.22;;;;;;;21.13;100.00;156798.31;4839861;29;1063457;-79
2023/07/24 12:53:23;;;;;;;5.93;5.33;;;;;;;21.20;100.00;156815.31;4877819;29;20219;-79
2023/07/24 12:56:08;;;;;;;6.27;5.67;;;;;;;21.27;100.00;156833.56;4878224;29;20482;-79
2023/07/24 12:58:54;;;;;;;6.13;5.53;;;;;;;21.37;100.00;156858.34;4879459;29;20593;-79
2023/07/24 13:01:39;;;;;;;6.53;5.40;;;;;;;21.50;100.00;156893.59;4894947;29;20537;-79